Terminal Aerodrome Forecast
Issued by NWS Sterling, VA

Home | Current Version | Previous Version | Text Only | Print | Product List | Glossary On
Versions: 1 2 3 4 5 6 7 8 9 10 11 12 13 14 15 16
000
FTUS41 KLWX 011124
TAFMRB
TAF
KMRB 011124Z 0112/0212 34004KT 3SM BR FEW250
     FM011300 35005KT P6SM FEW250
     FM021000 VRB03KT 5SM BR BKN070=

USA.gov is the U.S. government's official web portal to all federal, state and local government web resources and services.